• Join FlightAware (Why Join?)
  • Login
  • US Flag 
03:21PM EST


 

Airport Tracker/Info


-or-


 

Live Flight TrackerFlight Track Log ✈ UAL4536 ✈ 24-Nov-2013 ✈ KEWR - KCVG

Flight Track Log - Related Links

Times and Time Zones

All times are in EST time to prevent confusion due to time zone crossing. See the UAL4536 flight status page for this flight to view local times or setup timezone preferences in your user account.

Time Position Orientation Groundspeed Altitude Reporting Facility
EST Latitude Longitude Course Direction KTS MPH feet Rate Location/Type
09:49PM 40.7167 -74.1500 252° West 162 186 2,100  Level New York TRACON
09:50PM 40.7333 -74.2000 294° West 200 230 4,400 2,640 Climbing New York TRACON
09:51PM 40.7000 -74.2833 242° Southwest 240 276 7,400 2,640 Climbing New York TRACON
09:52PM 40.6333 -74.7040 237° Southwest  Level Estimated
09:52PM 40.6833 -74.3667 255° West 264 304 9,500  Level New York TRACON
09:53PM 40.6181 -74.8376 180° South  Level Estimated
09:54PM 40.6027 -74.9713 252° West  Level Estimated
09:54PM 40.7131 -74.5028 286° West 218 251 13,900  Level New York Center
09:55PM 40.7847 -74.5450 336° Northwest 241 277 16,200 1,500 Climbing New York Center
09:56PM 40.8219 -74.6156 305° West 229 264 17,000 900 Climbing New York Center
09:57PM 40.7825 -74.7339 246° West 263 303 18,100 1,440 Climbing New York Center
09:58PM 40.7497 -74.8442 249° West 307 353 19,900 1,500 Climbing New York Center
09:59PM 40.7186 -74.9603 251° West 322 371 21,200 1,200 Climbing New York Center
10:00PM 40.6853 -75.0758 249° West 332 382 22,400 1,440 Climbing New York Center
10:01PM 40.6331 -75.1875 238° Southwest 344 396 24,100 1,740 Climbing New York Center
10:02PM 40.5853 -75.2936 239° Southwest 349 402 25,900 1,620 Climbing New York Center
10:03PM 40.5353 -75.3997 238° Southwest 349 402 27,400 1,020 Climbing New York Center
10:04PM 40.4872 -75.5083 240° Southwest 344 396 28,000 300 Climbing New York Center
10:05PM 40.4347 -75.6219 239° Southwest 344 396 28,000  Level New York Center
10:06PM 40.3844 -75.7328 239° Southwest 372 428 28,000 300 Level New York Center
10:07PM 40.3292 -75.8542 239° Southwest 386 444 28,600 900 Climbing New York Center
10:08PM 40.2692 -75.9858 239° Southwest 391 450 29,800 960 Climbing New York Center
10:09PM 40.2272 -76.0831 241° Southwest 385 443 30,600 780 Climbing New York Center
10:10PM 40.1644 -76.2278 240° Southwest 385 443 31,400 1,080 Climbing New York Center
10:11PM 40.1150 -76.3489 242° Southwest 385 443 32,800 1,080 Climbing New York Center
10:13PM 39.9861 -76.6475 241° Southwest 394 453 35,300 900 Climbing Washington Center
10:14PM 39.9372 -76.7658 242° Southwest 389 448 36,000 300 Climbing Washington Center
10:15PM 39.8881 -76.8706 239° Southwest 389 448 36,000  Level Washington Center
10:16PM 39.8389 -76.9831 240° Southwest 378 435 36,000  Level Washington Center
10:17PM 39.7897 -77.1011 242° Southwest 373 429 36,000  Level Washington Center
10:18PM 39.7361 -77.2186 239° Southwest 373 429 36,000  Level Washington Center
10:19PM 39.6864 -77.3361 241° Southwest 373 429 36,000  Level Washington Center
10:20PM 39.6347 -77.4508 240° Southwest 373 429 36,000  Level Washington Center
10:21PM 39.5850 -77.5653 241° Southwest 373 429 36,000  Level Washington Center
10:22PM 39.5311 -77.6794 239° Southwest 373 429 36,000  Level Washington Center
10:23PM 39.4831 -77.7936 241° Southwest 373 429 36,000  Level Washington Center
10:24PM 39.4331 -77.9022 239° Southwest 373 429 36,000  Level Washington Center
10:25PM 39.3831 -78.0136 240° Southwest 373 429 36,000  Level Washington Center
10:26PM 39.3328 -78.1244 240° Southwest 368 423 36,000  Level Washington Center
10:27PM 39.2803 -78.2381 239° Southwest 368 423 36,000  Level Washington Center
10:28PM 39.2319 -78.3514 241° Southwest 368 423 36,000  Level Washington Center
10:29PM 39.1794 -78.4619 239° Southwest 368 423 36,000  Level Washington Center
10:30PM 39.1264 -78.5803 240° Southwest 373 429 36,000  Level Washington Center
10:31PM 39.0736 -78.6958 240° Southwest 373 429 36,000  Level Washington Center
10:32PM 39.0206 -78.8111 239° Southwest 373 429 36,000  Level Washington Center
10:33PM 38.9650 -78.9289 239° Southwest 373 429 36,000  Level Washington Center
10:34PM 38.9117 -79.0464 240° Southwest 373 429 36,000  Level Washington Center
10:35PM 38.8564 -79.1611 238° Southwest 373 429 36,000  Level Washington Center
10:36PM 38.8381 -79.2803 259° West 365 420 36,000  Level Washington Center
10:37PM 38.8342 -79.4028 268° West 344 396 36,000  Level Washington Center
10:38PM 38.8325 -79.5225 269° West 344 396 36,000  Level Washington Center
10:39PM 38.8344 -79.6506 271° West 359 413 36,000  Level Washington Center
10:40PM 38.8303 -79.7703 267° West 354 407 36,000  Level Washington Center
10:41PM 38.8261 -79.8872 267° West 348 400 36,000  Level Washington Center
10:42PM 38.8239 -80.0069 269° West 348 400 36,000  Level Washington Center
10:43PM 38.8214 -80.1294 269° West 348 400 36,000  Level Washington Center
10:44PM 38.8142 -80.2867 267° West 335 386 36,000  Level Indianapolis Center
10:45PM 38.8117 -80.4061 268° West 335 386 36,000  Level Indianapolis Center
10:46PM 38.8078 -80.5250 268° West 333 383 36,000  Level Indianapolis Center
10:47PM 38.7986 -80.6458 264° West 339 390 36,000  Level Indianapolis Center
10:48PM 38.7808 -80.7656 259° West 341 392 36,000  Level Indianapolis Center
10:49PM 38.7644 -80.8872 260° West 345 397 36,000  Level Indianapolis Center
10:50PM 38.7464 -81.0061 259° West 342 394 36,000  Level Indianapolis Center
10:51PM 38.7286 -81.1264 259° West 341 392 36,000  Level Indianapolis Center
10:52PM 38.7119 -81.2450 260° West 339 390 36,000  Level Indianapolis Center
10:54PM 38.6942 -81.3656 259° West 341 392 36,000  Level Indianapolis Center
10:55PM 38.6742 -81.4997 259° West 340 391 36,000  Level Indianapolis Center
10:56PM 38.6567 -81.6183 259° West 342 394 36,000  Level Indianapolis Center
10:57PM 38.6397 -81.7347 259° West 342 394 36,000  Level Indianapolis Center
10:58PM 38.6222 -81.8542 259° West 341 392 36,000  Level Indianapolis Center
10:59PM 38.6036 -81.9736 259° West 341 392 36,000  Level Indianapolis Center
11:00PM 38.5858 -82.0919 259° West 339 390 36,000  Level Indianapolis Center
11:01PM 38.5669 -82.2114 259° West 341 392 36,000  Level Indianapolis Center
11:02PM 38.5481 -82.3331 259° West 347 399 36,000  Level Indianapolis Center
11:03PM 38.5289 -82.4544 259° West 345 397 36,000  Level Indianapolis Center
11:04PM 38.5097 -82.5750 259° West 347 399 36,000 -240 Level Indianapolis Center
11:05PM 38.4922 -82.6969 260° West 348 400 35,600 -1,380 Descending Indianapolis Center
11:06PM 38.5025 -82.8117 277° West 331 381 33,300 -2,400 Descending Indianapolis Center
11:07PM 38.5150 -82.9264 278° West 326 375 30,800 -2,760 Descending Indianapolis Center
11:08PM 38.5300 -83.0686 278° West 343 395 27,800 -2,820 Descending Indianapolis Center
11:09PM 38.5436 -83.1978 278° West 360 414 25,200 -2,880 Descending Indianapolis Center
11:10PM 38.5558 -83.3333 277° West 377 434 22,000 -2,940 Descending Indianapolis Center
11:11PM 38.5683 -83.4614 277° West 367 422 19,300 -2,580 Descending Indianapolis Center
11:12PM 38.5806 -83.5844 277° West 353 406 16,800 -3,000 Descending Indianapolis Center
11:13PM 38.5928 -83.7036 278° West 342 394 13,300 -3,360 Descending Indianapolis Center
11:14PM 38.6033 -83.8192 277° West 331 381 10,100 -1,680 Descending Indianapolis Center
11:15PM 38.6167 -83.9353 278° West 329 379 10,000 -60 Descending Indianapolis Center
11:16PM 38.6492 -84.0272 294° West 321 369 10,000  Level Indianapolis Center
11:17PM 38.6867 -84.1325 295° West 323 372 10,000  Level Indianapolis Center
11:18PM 38.7217 -84.2336 294° West 315 362 10,000 -420 Level Indianapolis Center
11:19PM 38.7517 -84.3203 294° West 276 318 9,200 -1,440 Descending Indianapolis Center
11:20PM 38.7864 -84.4211 294° West 262 302 7,200 -1,740 Descending Indianapolis Center
11:21PM 38.8142 -84.4986 295° West 247 284 5,700 -1,200 Descending Indianapolis Center
11:22PM 38.8492 -84.5550 309° West 244 281 4,800 -1,200 Descending Indianapolis Center
11:24PM 38.9500 -84.6500 324° Northwest 201 231 2,400 -1,080 Descending Cincinnati TRACON
11:25PM 38.9833 -84.6667 339° North 129 148 1,800 -660 Descending Cincinnati TRACON
11:26PM 39.0333 -84.6667 360° North 125 144 1,100 -720 Descending Cincinnati TRACON